createdAt,value
2023-04-23T00:00:55.586Z,93.40
2023-04-23T00:01:55.597Z,93.44
2023-04-23T00:02:55.613Z,93.44
2023-04-23T00:03:55.813Z,93.54
2023-04-23T00:04:55.776Z,93.54
2023-04-23T00:05:55.549Z,93.65
2023-04-23T00:06:55.502Z,93.65
2023-04-23T00:07:55.520Z,93.74
2023-04-23T00:08:56.356Z,93.85
2023-04-23T00:09:55.510Z,93.85
2023-04-23T00:10:55.882Z,93.85
2023-04-23T00:11:55.471Z,93.74
2023-04-23T00:13:16.582Z,93.65
2023-04-23T00:13:56.381Z,93.65
2023-04-23T00:14:55.456Z,93.44
2023-04-23T00:15:55.498Z,93.33
2023-04-23T00:16:55.621Z,93.33
2023-04-23T00:17:56.322Z,93.44
2023-04-23T00:18:55.461Z,93.44
2023-04-23T00:19:55.390Z,93.54
2023-04-23T00:20:55.374Z,93.65
2023-04-23T00:21:55.333Z,93.74
2023-04-23T00:22:55.347Z,93.74
2023-04-23T00:23:55.316Z,93.85
2023-04-23T00:24:56.079Z,93.85
2023-04-23T00:25:55.300Z,93.85
2023-04-23T00:26:55.296Z,93.95
2023-04-23T00:27:55.260Z,94.06
2023-04-23T00:28:55.268Z,94.06
2023-04-23T00:29:55.238Z,93.95
2023-04-23T00:30:55.254Z,93.95
2023-04-23T00:31:55.246Z,93.95
2023-04-23T00:32:55.328Z,93.95
2023-04-23T00:33:55.195Z,93.99
2023-04-23T00:34:55.217Z,94.10
2023-04-23T00:35:55.191Z,94.10
2023-04-23T00:36:55.180Z,94.20
2023-04-23T00:37:55.204Z,94.20
2023-04-23T00:38:55.163Z,94.10
2023-04-23T00:39:55.130Z,94.10
2023-04-23T00:40:55.136Z,94.10
2023-04-23T00:41:55.108Z,94.10
2023-04-23T00:42:55.108Z,94.10
2023-04-23T00:43:55.081Z,94.10
2023-04-23T00:44:55.091Z,94.20
2023-04-23T00:45:55.100Z,94.20
2023-04-23T00:46:55.064Z,94.10
2023-04-23T00:47:55.068Z,93.99
2023-04-23T00:48:55.055Z,93.93
2023-04-23T00:49:55.009Z,93.89
2023-04-23T00:50:55.019Z,93.93
2023-04-23T00:51:54.982Z,93.93
2023-04-23T00:52:54.999Z,93.93
2023-04-23T00:53:54.959Z,93.93
2023-04-23T00:54:54.972Z,93.93
2023-04-23T00:55:54.945Z,93.84
2023-04-23T00:56:54.949Z,93.84
2023-04-23T00:57:54.911Z,93.63
2023-04-23T00:58:54.917Z,93.43
2023-04-23T00:59:54.900Z,93.32
2023-04-23T01:00:54.914Z,93.22
2023-04-23T01:01:54.878Z,93.01
2023-04-23T01:02:54.988Z,92.91
2023-04-23T01:03:54.988Z,92.81
2023-04-23T01:04:54.836Z,92.40
2023-04-23T01:05:54.820Z,92.40
2023-04-23T01:06:54.819Z,92.50
2023-04-23T01:07:54.781Z,92.50
2023-04-23T01:08:54.783Z,92.50
2023-04-23T01:09:54.745Z,92.55
2023-04-23T01:10:54.764Z,92.24
2023-04-23T01:11:54.726Z,92.14
2023-04-23T01:12:54.760Z,92.24
2023-04-23T01:13:54.704Z,92.14
2023-04-23T01:14:54.714Z,92.03
2023-04-23T01:15:54.765Z,91.93
2023-04-23T01:16:54.865Z,92.03
2023-04-23T01:17:54.776Z,92.03
2023-04-23T01:18:54.899Z,92.03
2023-04-23T01:19:55.410Z,92.14
2023-04-23T01:20:54.642Z,92.03
2023-04-23T01:21:54.648Z,91.93
2023-04-23T01:22:54.605Z,91.93
2023-04-23T01:23:54.615Z,91.83
2023-04-23T01:24:54.749Z,91.93
2023-04-23T01:25:54.770Z,92.03
2023-04-23T01:26:54.618Z,92.03
2023-04-23T01:27:54.675Z,92.14
2023-04-23T01:28:54.532Z,92.24
2023-04-23T01:29:54.571Z,92.34
2023-04-23T01:30:54.636Z,92.44
2023-04-23T01:31:54.560Z,92.34
2023-04-23T01:32:55.039Z,92.24
2023-04-23T01:33:54.768Z,92.24
2023-04-23T01:34:54.544Z,92.24
2023-04-23T01:35:54.629Z,92.34
2023-04-23T01:36:54.573Z,92.49
2023-04-23T01:37:54.492Z,92.59
2023-04-23T01:38:54.462Z,92.69
2023-04-23T01:39:54.454Z,92.59
2023-04-23T01:40:54.425Z,92.59
2023-04-23T01:41:54.469Z,92.59
2023-04-23T01:42:54.422Z,92.59
2023-04-23T01:43:54.379Z,92.69
2023-04-23T01:44:54.345Z,92.79
2023-04-23T01:45:54.380Z,92.90
2023-04-23T01:46:54.359Z,93.00
2023-04-23T01:47:54.382Z,93.30
2023-04-23T01:48:54.314Z,93.30
2023-04-23T01:49:54.316Z,93.30
2023-04-23T01:50:54.279Z,93.30
2023-04-23T01:51:54.303Z,93.41
2023-04-23T01:52:54.270Z,93.41
2023-04-23T01:53:54.284Z,93.51
2023-04-23T01:54:54.235Z,93.62
2023-04-23T01:55:54.257Z,93.62
2023-04-23T01:56:54.211Z,93.51
2023-04-23T01:57:54.250Z,93.35
2023-04-23T01:58:54.178Z,93.25
2023-04-23T01:59:54.199Z,93.15
2023-04-23T02:00:54.173Z,92.83
2023-04-23T02:01:54.215Z,92.63
2023-04-23T02:02:54.245Z,92.53
2023-04-23T02:03:54.218Z,92.63
2023-04-23T02:04:54.122Z,92.83
2023-04-23T02:05:54.135Z,92.94
2023-04-23T02:06:54.117Z,93.04
2023-04-23T02:07:54.109Z,93.04
2023-04-23T02:08:54.078Z,93.04
2023-04-23T02:09:54.088Z,93.15
2023-04-23T02:10:54.053Z,93.15
2023-04-23T02:11:54.073Z,93.25
2023-04-23T02:12:54.032Z,93.25
2023-04-23T02:13:54.048Z,93.25
2023-04-23T02:14:54.028Z,93.25
2023-04-23T02:15:54.055Z,93.45
2023-04-23T02:16:54.042Z,93.45
2023-04-23T02:17:54.079Z,93.35
2023-04-23T02:18:53.960Z,93.35
2023-04-23T02:19:53.972Z,93.35
2023-04-23T02:20:54.084Z,93.45
2023-04-23T02:21:54.730Z,93.45
2023-04-23T02:22:53.938Z,93.45
2023-04-23T02:23:53.927Z,93.55
2023-04-23T02:24:53.886Z,93.55
2023-04-23T02:25:53.928Z,93.66
2023-04-23T02:26:53.881Z,93.76
2023-04-23T02:27:53.878Z,93.86
2023-04-23T02:28:53.854Z,93.96
2023-04-23T02:29:53.852Z,93.96
2023-04-23T02:30:53.821Z,94.07
2023-04-23T02:31:53.885Z,94.17
2023-04-23T02:32:53.837Z,94.17
2023-04-23T02:33:53.809Z,94.27
2023-04-23T02:34:53.804Z,94.27
2023-04-23T02:35:53.792Z,94.27
2023-04-23T02:36:53.785Z,94.17
2023-04-23T02:37:53.782Z,94.17
2023-04-23T02:38:53.735Z,94.17
2023-04-23T02:39:53.750Z,94.17
2023-04-23T02:40:53.716Z,94.17
2023-04-23T02:41:53.730Z,94.32
2023-04-23T02:42:53.686Z,94.32
2023-04-23T02:43:53.699Z,94.42
2023-04-23T02:44:53.676Z,94.42
2023-04-23T02:45:53.675Z,94.32
2023-04-23T02:46:53.751Z,94.42
2023-04-23T02:47:53.738Z,94.42
2023-04-23T02:48:53.621Z,94.52
2023-04-23T02:49:53.657Z,94.52
2023-04-23T02:50:53.601Z,94.52
2023-04-23T02:51:53.621Z,94.62
2023-04-23T02:52:53.718Z,94.73
2023-04-23T02:53:53.590Z,94.83
2023-04-23T02:54:53.555Z,94.93
2023-04-23T02:55:53.562Z,95.03
2023-04-23T02:56:53.541Z,95.14
2023-04-23T02:57:53.547Z,95.24
2023-04-23T02:58:53.503Z,95.34
2023-04-23T02:59:53.523Z,95.34
2023-04-23T03:00:53.543Z,95.44
2023-04-23T03:01:53.528Z,95.44
2023-04-23T03:02:53.593Z,95.44
2023-04-23T03:03:53.561Z,95.44
2023-04-23T03:04:53.436Z,95.44
2023-04-23T03:05:53.473Z,95.54
2023-04-23T03:06:53.414Z,95.54
2023-04-23T03:07:53.472Z,95.54
2023-04-23T03:08:53.390Z,95.65
2023-04-23T03:09:53.417Z,95.69
2023-04-23T03:10:53.367Z,95.69
2023-04-23T03:11:53.382Z,95.69
2023-04-23T03:12:53.351Z,95.69
2023-04-23T03:13:53.353Z,95.79
2023-04-23T03:14:53.319Z,95.79
2023-04-23T03:15:53.340Z,95.90
2023-04-23T03:16:53.350Z,95.90
2023-04-23T03:17:53.358Z,95.90
2023-04-23T03:18:53.282Z,95.90
2023-04-23T03:19:53.286Z,96.00
2023-04-23T03:20:53.268Z,96.10
2023-04-23T03:21:53.280Z,96.20
2023-04-23T03:22:53.266Z,96.20
2023-04-23T03:23:53.990Z,96.31
2023-04-23T03:24:53.233Z,96.41
2023-04-23T03:25:53.253Z,96.41
2023-04-23T03:26:53.211Z,96.41
2023-04-23T03:27:53.528Z,96.51
2023-04-23T03:28:53.188Z,96.51
2023-04-23T03:29:53.178Z,96.57
2023-04-23T03:30:53.155Z,96.57
2023-04-23T03:31:53.150Z,96.67
2023-04-23T03:32:53.150Z,96.67
2023-04-23T03:33:53.138Z,96.67
2023-04-23T03:34:53.087Z,96.57
2023-04-23T03:35:53.115Z,96.62
2023-04-23T03:36:53.091Z,96.62
2023-04-23T03:37:53.090Z,96.51
2023-04-23T03:38:53.102Z,96.51
2023-04-23T03:39:53.066Z,96.41
2023-04-23T03:40:53.029Z,96.31
2023-04-23T03:41:53.041Z,96.31
2023-04-23T03:42:53.020Z,96.20
2023-04-23T03:43:53.029Z,96.25
2023-04-23T03:44:52.979Z,96.15
2023-04-23T03:45:53.097Z,96.15
2023-04-23T03:46:52.965Z,96.04
2023-04-23T03:47:53.078Z,96.09
2023-04-23T03:48:52.943Z,96.09
2023-04-23T03:49:52.969Z,96.09
2023-04-23T03:50:52.931Z,96.19
2023-04-23T03:51:52.930Z,96.40
2023-04-23T03:52:52.900Z,96.60
2023-04-23T03:53:52.901Z,96.81
2023-04-23T03:54:52.867Z,96.91
2023-04-23T03:55:52.887Z,97.12
2023-04-23T03:56:52.842Z,97.22
2023-04-23T03:57:52.861Z,97.32
2023-04-23T03:58:52.838Z,97.38
2023-04-23T03:59:52.857Z,97.38
2023-04-23T04:00:52.803Z,97.48
2023-04-23T04:01:52.851Z,97.58
2023-04-23T04:02:52.924Z,97.58
2023-04-23T04:03:53.082Z,97.58
2023-04-23T04:04:52.957Z,97.58
2023-04-23T04:05:52.837Z,97.58
2023-04-23T04:06:52.748Z,97.58
2023-04-23T04:07:52.755Z,97.69
2023-04-23T04:08:52.764Z,97.58
2023-04-23T04:09:52.774Z,97.58
2023-04-23T04:10:52.714Z,97.58
2023-04-23T04:11:53.357Z,97.54
2023-04-23T04:12:52.669Z,97.54
2023-04-23T04:13:52.692Z,97.54
2023-04-23T04:14:52.653Z,97.54
2023-04-23T04:15:52.761Z,97.54
2023-04-23T04:16:52.631Z,97.44
2023-04-23T04:17:52.671Z,97.44
2023-04-23T04:18:55.122Z,97.23
2023-04-23T04:19:52.647Z,97.23
2023-04-23T04:20:52.585Z,97.13
2023-04-23T04:21:52.593Z,97.03
2023-04-23T04:22:52.556Z,97.03
2023-04-23T04:23:52.571Z,97.03
2023-04-23T04:24:52.573Z,97.03
2023-04-23T04:25:52.594Z,97.13
2023-04-23T04:26:52.521Z,97.03
2023-04-23T04:27:52.527Z,97.13
2023-04-23T04:28:52.505Z,97.13
2023-04-23T04:29:52.501Z,97.03
2023-04-23T04:30:52.467Z,97.03
2023-04-23T04:31:52.526Z,96.98
2023-04-23T04:32:52.500Z,96.98
2023-04-23T04:33:52.455Z,96.88
2023-04-23T04:34:52.431Z,96.88
2023-04-23T04:35:52.546Z,96.88
2023-04-23T04:36:52.398Z,96.78
2023-04-23T04:37:52.408Z,96.78
2023-04-23T04:38:52.391Z,96.67
2023-04-23T04:39:52.392Z,96.57
2023-04-23T04:40:52.347Z,96.47
2023-04-23T04:41:52.358Z,96.37
2023-04-23T04:42:52.341Z,96.26
2023-04-23T04:43:52.377Z,96.20
2023-04-23T04:44:52.494Z,96.00
2023-04-23T04:45:52.333Z,95.90
2023-04-23T04:46:52.290Z,95.79
2023-04-23T04:47:52.307Z,95.74
2023-04-23T04:48:52.262Z,95.74
2023-04-23T04:49:52.282Z,95.64
2023-04-23T04:50:52.239Z,95.74
2023-04-23T04:51:52.251Z,95.74
2023-04-23T04:52:52.218Z,95.78
2023-04-23T04:53:52.236Z,95.78
2023-04-23T04:54:52.217Z,95.68
2023-04-23T04:55:52.209Z,95.98
2023-04-23T04:56:52.184Z,96.19
2023-04-23T04:57:52.190Z,96.30
2023-04-23T04:58:52.151Z,96.40
2023-04-23T04:59:52.163Z,96.50
2023-04-23T05:00:52.238Z,96.50
2023-04-23T05:01:52.137Z,96.55
2023-04-23T05:02:52.246Z,96.55
2023-04-23T05:03:52.298Z,96.55
2023-04-23T05:04:52.096Z,96.65
2023-04-23T05:05:52.088Z,96.65
2023-04-23T05:06:52.066Z,96.85
2023-04-23T05:07:52.069Z,96.95
2023-04-23T05:08:52.069Z,97.27
2023-04-23T05:09:52.064Z,97.37
2023-04-23T05:10:52.016Z,97.47
2023-04-23T05:11:52.031Z,97.47
2023-04-23T05:12:52.146Z,97.53
2023-04-23T05:13:52.007Z,97.63
2023-04-23T05:14:53.045Z,97.63
2023-04-23T05:15:51.988Z,97.69
2023-04-23T05:16:51.971Z,97.69
2023-04-23T05:17:52.032Z,97.69
2023-04-23T05:18:51.926Z,97.64
2023-04-23T05:19:51.947Z,97.74
2023-04-23T05:20:51.916Z,97.74
2023-04-23T05:21:51.926Z,97.70
2023-04-23T05:22:51.879Z,97.70
2023-04-23T05:23:51.894Z,97.60
2023-04-23T05:24:51.863Z,97.34
2023-04-23T05:25:54.194Z,97.24
2023-04-23T05:26:51.826Z,97.04
2023-04-23T05:27:51.846Z,96.94
2023-04-23T05:28:51.810Z,96.69
2023-04-23T05:29:51.822Z,96.58
2023-04-23T05:30:51.796Z,96.28
2023-04-23T05:31:51.862Z,96.07
2023-04-23T05:32:51.890Z,95.76
2023-04-23T05:33:51.770Z,95.41
2023-04-23T05:34:51.794Z,95.31
2023-04-23T05:35:51.743Z,94.90
2023-04-23T05:36:51.758Z,94.45
2023-04-23T05:37:51.702Z,94.14
2023-04-23T05:38:51.769Z,93.73
2023-04-23T05:39:51.682Z,93.38
2023-04-23T05:40:51.701Z,92.87
2023-04-23T05:41:51.659Z,92.56
2023-04-23T05:42:51.672Z,92.15
2023-04-23T05:43:51.633Z,92.01
2023-04-23T05:44:51.655Z,92.01
2023-04-23T05:45:52.088Z,91.96
2023-04-23T05:46:51.635Z,91.66
2023-04-23T05:47:51.693Z,90.94
2023-04-23T05:48:51.602Z,90.53
2023-04-23T05:49:51.586Z,90.23
2023-04-23T05:50:51.572Z,89.72
2023-04-23T05:51:51.543Z,89.82
2023-04-23T05:52:51.564Z,90.02
2023-04-23T05:53:51.544Z,90.12
2023-04-23T05:54:51.535Z,90.23
2023-04-23T05:55:51.491Z,90.29
2023-04-23T05:56:52.832Z,90.29
2023-04-23T05:57:51.469Z,89.98
2023-04-23T05:58:51.478Z,89.67
2023-04-23T05:59:51.451Z,89.67
2023-04-23T06:00:51.450Z,89.58
2023-04-23T06:01:51.421Z,89.67
2023-04-23T06:02:51.534Z,89.67
2023-04-23T06:03:51.663Z,89.58
2023-04-23T06:04:51.574Z,89.47
2023-04-23T06:05:51.507Z,89.47
2023-04-23T06:06:52.161Z,89.43
2023-04-23T06:07:51.377Z,89.12
2023-04-23T06:08:51.376Z,89.02
2023-04-23T06:09:51.330Z,89.02
2023-04-23T06:10:51.343Z,88.57
2023-04-23T06:11:51.306Z,88.47
2023-04-23T06:12:51.310Z,88.17
2023-04-23T06:13:51.290Z,87.55
2023-04-23T06:14:51.298Z,87.45
2023-04-23T06:15:51.316Z,86.83
2023-04-23T06:16:51.288Z,86.49
2023-04-23T06:17:51.258Z,86.59
2023-04-23T06:18:51.241Z,86.39
2023-04-23T06:19:51.217Z,86.08
2023-04-23T06:20:51.309Z,86.08
2023-04-23T06:21:51.187Z,86.24
2023-04-23T06:22:51.210Z,86.04
2023-04-23T06:23:51.163Z,85.63
2023-04-23T06:24:51.179Z,85.63
2023-04-23T06:25:51.155Z,85.43
2023-04-23T06:26:51.339Z,85.22
2023-04-23T06:27:51.118Z,85.22
2023-04-23T06:28:51.119Z,85.63
2023-04-23T06:29:51.104Z,85.33
2023-04-23T06:30:51.113Z,85.69
2023-04-23T06:31:51.203Z,86.00
2023-04-23T06:32:51.186Z,86.10
2023-04-23T06:33:51.038Z,85.69
2023-04-23T06:35:00.052Z,85.39
2023-04-23T06:35:52.062Z,85.35
2023-04-23T06:36:51.060Z,85.14
2023-04-23T06:37:51.016Z,84.94
2023-04-23T06:38:50.999Z,85.11
2023-04-23T06:39:50.977Z,84.23
2023-04-23T06:40:50.995Z,84.43
2023-04-23T06:41:50.988Z,84.19
2023-04-23T06:42:50.974Z,84.50
2023-04-23T06:43:50.937Z,85.00
2023-04-23T06:44:50.944Z,83.17
2023-04-23T06:45:50.911Z,83.27
2023-04-23T06:46:51.831Z,83.37
2023-04-23T06:47:51.173Z,83.37
2023-04-23T06:48:50.946Z,84.03
2023-04-23T06:49:50.942Z,85.05
2023-04-23T06:50:51.031Z,85.66
2023-04-23T06:51:50.845Z,85.92
2023-04-23T06:52:50.854Z,85.82
2023-04-23T06:53:50.920Z,84.90
2023-04-23T06:54:50.824Z,85.41
2023-04-23T06:55:50.817Z,83.89
2023-04-23T06:56:50.934Z,83.78
2023-04-23T06:57:50.768Z,84.29
2023-04-23T06:58:50.780Z,84.05
2023-04-23T06:59:50.769Z,83.95
2023-04-23T07:00:50.920Z,83.74
2023-04-23T07:01:50.794Z,83.50
2023-04-23T07:02:50.805Z,83.70
2023-04-23T07:03:50.744Z,83.15
2023-04-23T07:04:51.141Z,82.75
2023-04-23T07:05:50.720Z,81.39
2023-04-23T07:06:50.850Z,81.39
2023-04-23T07:07:50.679Z,79.86
2023-04-23T07:08:50.696Z,80.27
2023-04-23T07:09:50.651Z,79.05
2023-04-23T07:10:50.664Z,79.56
2023-04-23T07:11:50.628Z,79.97
2023-04-23T07:12:50.639Z,80.13
2023-04-23T07:13:50.604Z,79.83
2023-04-23T07:14:50.632Z,79.52
2023-04-23T07:15:50.636Z,78.81
2023-04-23T07:16:50.610Z,78.91
2023-04-23T07:17:50.610Z,78.41
2023-04-23T07:18:50.582Z,78.47
2023-04-23T07:19:50.545Z,78.67
2023-04-23T07:20:50.566Z,78.88
2023-04-23T07:21:50.510Z,78.33
2023-04-23T07:22:50.519Z,79.04
2023-04-23T07:23:50.493Z,78.44
2023-04-23T07:24:50.507Z,78.09
2023-04-23T07:25:50.471Z,77.69
2023-04-23T07:26:50.490Z,76.98
2023-04-23T07:27:50.451Z,76.87
2023-04-23T07:28:52.773Z,76.67
2023-04-23T07:29:50.448Z,75.76
2023-04-23T07:30:50.436Z,76.71
2023-04-23T07:31:50.476Z,76.40
2023-04-23T07:32:50.462Z,76.31
2023-04-23T07:33:50.391Z,77.45
2023-04-23T07:34:50.390Z,77.36
2023-04-23T07:35:50.378Z,77.66
2023-04-23T07:36:50.377Z,77.66
2023-04-23T07:37:50.350Z,78.37
2023-04-23T07:38:50.344Z,78.37
2023-04-23T07:39:50.308Z,77.97
2023-04-23T07:40:50.330Z,77.86
2023-04-23T07:41:50.290Z,77.05
2023-04-23T07:42:50.298Z,76.75
2023-04-23T07:43:50.254Z,77.32
2023-04-23T07:44:50.266Z,77.42
2023-04-23T07:45:50.330Z,77.42
2023-04-23T07:46:50.286Z,76.51
2023-04-23T07:47:50.236Z,76.61
2023-04-23T07:48:51.080Z,77.62
2023-04-23T07:49:50.205Z,75.59
2023-04-23T07:50:50.201Z,75.09
2023-04-23T07:51:50.186Z,75.59
2023-04-23T07:52:50.178Z,75.15
2023-04-23T07:53:50.399Z,75.86
2023-04-23T07:54:50.352Z,75.52
2023-04-23T07:55:50.127Z,74.41
2023-04-23T07:56:50.153Z,74.21
2023-04-23T07:57:50.100Z,74.41
2023-04-23T07:58:50.112Z,73.76
2023-04-23T07:59:50.084Z,73.97
2023-04-23T08:00:50.085Z,72.61
2023-04-23T08:01:50.041Z,71.20
2023-04-23T08:02:50.141Z,71.20
2023-04-23T08:03:50.175Z,71.70
2023-04-23T08:04:50.185Z,70.36
2023-04-23T08:05:50.015Z,70.25
2023-04-23T08:06:50.010Z,69.71
2023-04-23T08:07:50.020Z,70.42
2023-04-23T08:08:49.997Z,69.89
2023-04-23T08:09:49.955Z,67.96
2023-04-23T08:10:49.969Z,69.38
2023-04-23T08:11:49.941Z,68.67
2023-04-23T08:12:49.954Z,67.89
2023-04-23T08:13:49.903Z,67.69
2023-04-23T08:14:49.918Z,68.90
2023-04-23T08:15:49.910Z,68.70
2023-04-23T08:16:49.903Z,68.40
2023-04-23T08:17:49.901Z,69.31
2023-04-23T08:19:01.695Z,68.43
2023-04-23T08:19:50.865Z,69.04
2023-04-23T08:20:49.857Z,69.88
2023-04-23T08:21:49.832Z,69.17
2023-04-23T08:22:49.824Z,70.08
2023-04-23T08:23:49.809Z,68.77
2023-04-23T08:24:49.825Z,68.60
2023-04-23T08:25:49.773Z,69.71
2023-04-23T08:26:49.796Z,70.32
2023-04-23T08:27:49.754Z,70.62
2023-04-23T08:28:49.757Z,70.83
2023-04-23T08:29:50.428Z,71.09
2023-04-23T08:30:49.736Z,69.68
2023-04-23T08:31:49.730Z,71.40
2023-04-23T08:32:49.785Z,70.76
2023-04-23T08:33:49.684Z,69.65
2023-04-23T08:34:49.714Z,70.15
2023-04-23T08:35:49.676Z,69.24
2023-04-23T08:36:49.689Z,68.73
2023-04-23T08:37:49.673Z,68.23
2023-04-23T08:38:49.655Z,69.04
2023-04-23T08:39:49.618Z,69.14
2023-04-23T08:40:49.628Z,68.19
2023-04-23T08:41:49.620Z,68.40
2023-04-23T08:42:49.621Z,68.47
2023-04-23T08:43:49.578Z,67.96
2023-04-23T08:44:49.571Z,67.15
2023-04-23T08:45:49.562Z,66.24
2023-04-23T08:46:49.574Z,66.64
2023-04-23T08:47:49.602Z,66.64
2023-04-23T08:48:50.470Z,66.75
2023-04-23T08:49:50.341Z,66.35
2023-04-23T08:50:49.542Z,65.50
2023-04-23T08:51:49.487Z,66.01
2023-04-23T08:52:49.516Z,66.01
2023-04-23T08:53:49.465Z,65.07
2023-04-23T08:54:49.482Z,65.47
2023-04-23T08:55:49.435Z,65.47
2023-04-23T08:56:49.465Z,65.24
2023-04-23T08:57:49.427Z,65.54
2023-04-23T08:58:49.486Z,64.20
2023-04-23T08:59:49.404Z,64.50
2023-04-23T09:00:49.429Z,63.46
2023-04-23T09:01:49.391Z,62.25
2023-04-23T09:02:49.802Z,64.07
2023-04-23T09:03:49.514Z,62.48
2023-04-23T09:04:51.159Z,62.51
2023-04-23T09:05:49.336Z,63.76
2023-04-23T09:06:49.359Z,64.70
2023-04-23T09:07:49.329Z,65.61
2023-04-23T09:08:49.336Z,66.11
2023-04-23T09:09:49.321Z,66.01
2023-04-23T09:10:49.321Z,64.02
2023-04-23T09:11:49.280Z,64.42
2023-04-23T09:12:49.276Z,65.97
2023-04-23T09:13:49.250Z,64.96
2023-04-23T09:14:49.252Z,64.69
2023-04-23T09:15:49.224Z,65.80
2023-04-23T09:16:49.261Z,66.44
2023-04-23T09:17:49.227Z,65.83
2023-04-23T09:18:49.215Z,66.13
2023-04-23T09:19:49.184Z,67.05
2023-04-23T09:20:49.192Z,67.76
2023-04-23T09:21:49.173Z,68.26
2023-04-23T09:22:49.182Z,67.35
2023-04-23T09:23:49.155Z,67.25
2023-04-23T09:24:49.143Z,67.35
2023-04-23T09:25:49.115Z,67.93
2023-04-23T09:26:49.120Z,68.13
2023-04-23T09:27:49.102Z,67.11
2023-04-23T09:28:50.116Z,67.11
2023-04-23T09:29:49.069Z,66.61
2023-04-23T09:30:49.078Z,67.22
2023-04-23T09:31:49.084Z,67.65
2023-04-23T09:32:49.116Z,68.16
2023-04-23T09:33:49.016Z,68.16
2023-04-23T09:34:49.026Z,68.16
2023-04-23T09:35:49.004Z,68.87
2023-04-23T09:36:49.007Z,68.06
2023-04-23T09:37:49.459Z,68.06
2023-04-23T09:38:48.989Z,68.26
2023-04-23T09:39:48.956Z,67.55
2023-04-23T09:40:48.954Z,68.26
2023-04-23T09:41:48.931Z,67.45
2023-04-23T09:42:48.940Z,67.22
2023-04-23T09:43:48.919Z,67.42
2023-04-23T09:44:48.918Z,67.72
2023-04-23T09:45:48.912Z,66.78
2023-04-23T09:46:48.888Z,67.08
2023-04-23T09:47:48.893Z,65.77
2023-04-23T09:48:48.887Z,66.17
2023-04-23T09:49:48.860Z,65.87
2023-04-23T09:50:48.836Z,65.64
2023-04-23T09:51:48.836Z,64.62
2023-04-23T09:52:48.797Z,64.09
2023-04-23T09:53:48.869Z,63.51
2023-04-23T09:54:48.792Z,64.93
2023-04-23T09:55:48.807Z,64.70
2023-04-23T09:56:48.757Z,64.79
2023-04-23T09:57:48.772Z,63.38
2023-04-23T09:58:48.747Z,62.24
2023-04-23T09:59:53.116Z,61.30
2023-04-23T10:00:49.717Z,61.17
2023-04-23T10:01:48.741Z,60.74
2023-04-23T10:02:48.790Z,59.12
2023-04-23T10:03:48.786Z,58.39
2023-04-23T10:04:48.726Z,58.69
2023-04-23T10:06:00.518Z,57.45
2023-04-23T10:07:02.394Z,58.67
2023-04-23T10:07:49.652Z,57.35
2023-04-23T10:08:48.631Z,57.96
2023-04-23T10:09:48.635Z,57.76
2023-04-23T10:10:59.591Z,56.95
2023-04-23T10:11:49.904Z,57.05
2023-04-23T10:12:54.420Z,56.75
2023-04-23T10:13:49.603Z,57.96
2023-04-23T10:14:48.561Z,58.23
2023-04-23T10:15:48.585Z,57.12
2023-04-23T10:16:49.416Z,58.01
2023-04-23T10:17:48.662Z,56.49
2023-04-23T10:18:48.510Z,56.07
2023-04-23T10:19:48.521Z,55.36
2023-04-23T10:20:48.500Z,54.73
2023-04-23T10:21:54.892Z,52.14
2023-04-23T10:22:49.469Z,53.65
2023-04-23T10:23:48.486Z,53.85
2023-04-23T10:24:49.535Z,52.84
2023-04-23T10:25:48.456Z,52.74
2023-04-23T10:26:48.411Z,52.01
2023-04-23T10:27:53.271Z,52.11
2023-04-23T10:28:49.404Z,52.39
2023-04-23T10:29:48.402Z,52.77
2023-04-23T10:30:48.359Z,50.93
2023-04-23T10:31:48.414Z,51.46
2023-04-23T10:32:49.268Z,51.56
2023-04-23T10:33:59.141Z,51.86
2023-04-23T10:34:49.333Z,50.66
2023-04-23T10:35:48.774Z,50.76
2023-04-23T10:36:48.306Z,51.89
2023-04-23T10:37:48.503Z,51.86
2023-04-23T10:38:57.334Z,53.37
2023-04-23T10:39:49.533Z,50.84
2023-04-23T10:40:48.306Z,50.43
2023-04-23T10:41:48.310Z,51.94
2023-04-23T10:42:48.235Z,52.74
2023-04-23T10:43:48.595Z,50.61
2023-04-23T10:44:59.091Z,50.61
2023-04-23T10:45:49.277Z,50.53
2023-04-23T10:46:48.231Z,50.63
2023-04-23T10:47:48.266Z,49.53
2023-04-23T10:48:48.192Z,49.88
2023-04-23T10:49:48.188Z,50.18
2023-04-23T10:51:06.908Z,50.68
2023-04-23T10:52:48.148Z,50.89
2023-04-23T10:53:48.165Z,51.01
2023-04-23T10:54:48.133Z,51.79
2023-04-23T10:55:48.216Z,51.59
2023-04-23T10:56:48.095Z,50.68
2023-04-23T10:57:48.120Z,51.51
2023-04-23T10:58:48.062Z,51.31
2023-04-23T10:59:48.085Z,52.42
2023-04-23T11:00:48.053Z,52.31
2023-04-23T11:01:48.063Z,52.31
2023-04-23T11:02:48.134Z,52.31
2023-04-23T11:03:48.223Z,52.31
2023-04-23T11:04:48.087Z,51.51
2023-04-23T11:05:48.003Z,50.91
2023-04-23T11:06:48.390Z,51.73
2023-04-23T11:07:47.962Z,51.14
2023-04-23T11:08:48.429Z,50.73
2023-04-23T11:09:47.963Z,50.93
2023-04-23T11:10:47.926Z,50.73
2023-04-23T11:11:47.925Z,49.73
2023-04-23T11:12:48.443Z,51.14
2023-04-23T11:13:47.906Z,50.02
2023-04-23T11:14:47.870Z,50.60
2023-04-23T11:15:47.891Z,49.50
2023-04-23T11:16:48.138Z,50.00
2023-04-23T11:17:47.936Z,49.90
2023-04-23T11:18:47.831Z,48.82
2023-04-23T11:19:47.846Z,49.73
2023-04-23T11:20:47.802Z,50.33
2023-04-23T11:21:47.807Z,50.43
2023-04-23T11:22:47.779Z,50.83
2023-04-23T11:23:47.818Z,50.02
2023-04-23T11:24:50.330Z,49.73
2023-04-23T11:25:47.779Z,48.72
2023-04-23T11:26:47.736Z,48.82
2023-04-23T11:27:47.774Z,49.02
2023-04-23T11:28:47.713Z,49.50
2023-04-23T11:29:47.766Z,49.70
2023-04-23T11:30:47.693Z,48.59
2023-04-23T11:32:01.003Z,48.79
2023-04-23T11:32:48.888Z,49.80
2023-04-23T11:33:48.466Z,48.39
2023-04-23T11:34:47.690Z,47.89
2023-04-23T11:35:47.662Z,48.92
2023-04-23T11:36:47.632Z,49.50
2023-04-23T11:37:47.636Z,48.59
2023-04-23T11:38:47.593Z,48.01
2023-04-23T11:39:47.701Z,48.61
2023-04-23T11:40:47.630Z,49.10
2023-04-23T11:41:47.580Z,48.61
2023-04-23T11:42:47.556Z,49.73
2023-04-23T11:43:47.571Z,49.32
2023-04-23T11:44:47.549Z,50.43
2023-04-23T11:45:47.576Z,49.62
2023-04-23T11:46:47.500Z,48.90
2023-04-23T11:47:47.548Z,49.50
2023-04-23T11:48:47.484Z,48.79
2023-04-23T11:49:47.496Z,49.30
2023-04-23T11:50:47.474Z,49.18
2023-04-23T11:51:47.500Z,49.27
2023-04-23T11:52:47.505Z,48.97
2023-04-23T11:53:47.619Z,49.37
2023-04-23T11:54:47.425Z,49.18
2023-04-23T11:55:47.455Z,49.85
2023-04-23T11:56:47.416Z,48.52
2023-04-23T11:57:47.706Z,47.52
2023-04-23T11:58:47.358Z,48.63
2023-04-23T11:59:47.382Z,48.93
2023-04-23T12:00:47.355Z,48.83
2023-04-23T12:01:47.403Z,47.62
2023-04-23T12:02:47.438Z,47.04
2023-04-23T12:03:47.490Z,47.74
2023-04-23T12:04:47.326Z,47.74
2023-04-23T12:05:47.366Z,47.62
2023-04-23T12:06:47.278Z,47.62
2023-04-23T12:07:47.274Z,47.24
2023-04-23T12:08:47.264Z,47.94
2023-04-23T12:09:47.289Z,49.05
2023-04-23T12:10:47.230Z,48.07
2023-04-23T12:11:47.249Z,48.07
2023-04-23T12:12:47.226Z,48.85
2023-04-23T12:13:47.448Z,49.45
2023-04-23T12:14:47.174Z,48.05
2023-04-23T12:15:47.243Z,47.14
2023-04-23T12:16:47.167Z,48.63
2023-04-23T12:17:47.204Z,48.52
2023-04-23T12:18:47.138Z,47.12
2023-04-23T12:19:47.152Z,47.42
2023-04-23T12:20:47.143Z,47.42
2023-04-23T12:21:47.138Z,47.62
2023-04-23T12:22:47.100Z,46.51
2023-04-23T12:23:47.111Z,47.64
2023-04-23T12:24:47.174Z,46.06
2023-04-23T12:25:47.085Z,46.86
2023-04-23T12:26:47.125Z,46.56
2023-04-23T12:27:47.058Z,47.16
2023-04-23T12:28:47.032Z,47.24
2023-04-23T12:29:47.067Z,47.42
2023-04-23T12:30:47.007Z,48.60
2023-04-23T12:31:47.057Z,47.50
2023-04-23T12:32:47.035Z,46.72
2023-04-23T12:33:47.003Z,46.31
2023-04-23T12:34:46.986Z,47.12
2023-04-23T12:35:46.996Z,47.74
2023-04-23T12:36:46.978Z,48.05
2023-04-23T12:37:46.961Z,48.65
2023-04-23T12:38:46.924Z,48.83
2023-04-23T12:39:46.952Z,47.92
2023-04-23T12:40:46.899Z,49.22
2023-04-23T12:41:46.915Z,49.55
2023-04-23T12:42:46.895Z,49.65
2023-04-23T12:43:46.881Z,50.15
2023-04-23T12:44:46.854Z,50.35
2023-04-23T12:45:46.863Z,50.89
2023-04-23T12:46:46.885Z,51.29
2023-04-23T12:47:46.902Z,50.38
2023-04-23T12:48:46.807Z,51.79
2023-04-23T12:49:46.823Z,50.81
2023-04-23T12:50:46.782Z,50.71
2023-04-23T12:51:46.807Z,51.21
2023-04-23T12:52:46.770Z,51.73
2023-04-23T12:53:46.780Z,52.72